Terminal Aerodrome Forecast
Issued by NWS

Home | Current Version | Previous Version | Text Only | Print | Product List | Glossary On
Versions: 1 2 3 4 5 6 7 8 9 10 11 12
000
FTUS46 KSGX 010524
TAFPSP
TAF
KPSP 010524Z 0106/0206 VRB05KT P6SM FEW070 BKN100
     FM011800 VRB06KT P6SM VCSH FEW040 BKN070
      TEMPO 0200/0204 6SM -RA BR BKN025
     FM020400 VRB05KT P6SM VCSH SCT025 BKN060=

USA.gov is the U.S. government's official web portal to all federal, state and local government web resources and services.